Time;durP1;ratioP1;P1;durP2;ratioP2;P2;SDS_P1;SDS_P2;PMS_P1;PMS_P2;Temp;Humidity;BMP_temperature;BMP_pressure;BME280_temperature;BME280_humidity;BME280_pressure;Samples;Min_cycle;Max_cycle;Signal;HPM_P1;HPM_P2
2023/06/23 00:04:29;;;;;;;4.78;2.30;;;;;;;20.25;100.00;98248.00;15334343;19;20481;-50
2023/06/23 00:09:54;;;;;;;4.22;2.53;;;;;;;20.29;100.00;98249.19;15327772;19;20346;-49
2023/06/23 00:15:26;;;;;;;4.82;2.42;;;;;;;20.30;100.00;98233.63;15276186;19;20015;-49
2023/06/23 00:20:54;;;;;;;6.03;2.63;;;;;;;20.26;100.00;98211.38;15270825;19;20358;-51
2023/06/23 00:26:19;;;;;;;4.22;2.50;;;;;;;20.25;100.00;98209.72;15269080;19;20031;-51
2023/06/23 00:31:45;;;;;;;7.07;2.22;;;;;;;20.31;100.00;98211.50;15269612;19;20360;-50
2023/06/23 00:37:13;;;;;;;5.72;2.17;;;;;;;20.31;100.00;98186.88;15265684;19;20027;-50
2023/06/23 00:42:46;;;;;;;3.83;2.05;;;;;;;20.33;100.00;98171.09;15270246;19;20029;-54
2023/06/23 00:48:13;;;;;;;4.80;2.00;;;;;;;20.32;100.00;98174.06;15268138;19;20371;-55
2023/06/23 00:53:41;;;;;;;3.85;2.20;;;;;;;20.30;100.00;98171.53;15271647;19;20501;-49
2023/06/23 00:59:07;;;;;;;4.38;2.20;;;;;;;20.30;100.00;98165.25;15266034;19;20497;-54
2023/06/23 01:04:35;;;;;;;4.45;2.05;;;;;;;20.28;100.00;98157.28;15268614;19;20010;-53
2023/06/23 01:10:14;;;;;;;4.95;2.10;;;;;;;20.27;100.00;98154.75;15265387;19;20014;-54
2023/06/23 01:15:50;;;;;;;4.93;2.30;;;;;;;20.24;100.00;98153.34;15265595;19;20669;-51
2023/06/23 01:21:20;;;;;;;4.32;2.50;;;;;;;20.21;100.00;98153.78;15266740;19;20351;-54
2023/06/23 01:27:13;;;;;;;4.68;2.40;;;;;;;20.18;100.00;98148.75;15264528;19;20032;-53
2023/06/23 01:32:46;;;;;;;4.60;2.20;;;;;;;20.13;100.00;98167.78;15268685;19;20014;-52
2023/06/23 01:38:18;;;;;;;4.35;2.22;;;;;;;20.12;100.00;98163.38;15265024;19;20015;-55
2023/06/23 01:43:47;;;;;;;4.13;2.40;;;;;;;20.09;100.00;98166.56;15269146;19;20014;-53
2023/06/23 01:49:22;;;;;;;4.97;2.53;;;;;;;20.07;100.00;98157.75;15265265;19;20018;-54
2023/06/23 01:54:48;;;;;;;4.90;2.80;;;;;;;20.04;100.00;98161.78;15267668;19;20415;-50
2023/06/23 02:00:16;;;;;;;5.00;2.45;;;;;;;20.02;100.00;98172.09;15274381;19;20070;-49
2023/06/23 02:05:45;;;;;;;5.43;2.53;;;;;;;19.99;100.00;98173.41;15276388;19;20011;-53
2023/06/23 02:11:12;;;;;;;6.68;2.67;;;;;;;19.96;100.00;98194.91;15273922;19;20102;-53
2023/06/23 02:16:40;;;;;;;4.78;2.70;;;;;;;19.96;100.00;98201.19;15272034;19;20028;-51
2023/06/23 02:22:09;;;;;;;4.38;2.60;;;;;;;19.96;100.00;98195.72;15269786;19;20082;-55
2023/06/23 02:27:34;;;;;;;6.20;2.60;;;;;;;19.95;100.00;98194.06;15267234;19;20014;-52
2023/06/23 02:33:01;;;;;;;4.88;2.60;;;;;;;20.05;100.00;98170.84;15272715;19;20090;-54
2023/06/23 02:38:32;;;;;;;8.55;2.75;;;;;;;20.02;100.00;98153.81;15265172;19;20081;-50
2023/06/23 02:44:00;;;;;;;7.00;2.90;;;;;;;20.01;100.00;98145.81;15289990;19;20022;-53
2023/06/23 02:49:30;;;;;;;8.10;3.05;;;;;;;19.97;100.00;98147.38;15259917;19;20006;-53
2023/06/23 02:55:00;;;;;;;5.35;2.78;;;;;;;19.92;100.00;98150.78;15265231;19;20510;-54
2023/06/23 03:00:26;;;;;;;6.25;2.85;;;;;;;19.84;100.00;98165.56;15257037;19;20019;-54
2023/06/23 03:05:52;;;;;;;7.10;3.10;;;;;;;19.78;100.00;98177.41;15260149;19;20025;-51
2023/06/23 03:11:21;;;;;;;7.38;3.00;;;;;;;19.73;100.00;98184.59;15262200;19;20082;-49
2023/06/23 03:17:00;;;;;;;6.40;2.83;;;;;;;19.67;100.00;98191.81;15258840;19;20039;-51
2023/06/23 03:22:29;;;;;;;6.22;2.92;;;;;;;19.63;100.00;98185.97;15262858;19;20380;-48
2023/06/23 03:28:00;;;;;;;5.95;2.97;;;;;;;19.57;100.00;98192.34;15262051;19;20766;-49
2023/06/23 03:33:32;;;;;;;7.30;2.92;;;;;;;19.59;100.00;98194.84;15259260;19;20593;-49
2023/06/23 03:39:06;;;;;;;5.20;2.70;;;;;;;19.58;100.00;98187.72;15255115;19;20022;-51
2023/06/23 03:44:40;;;;;;;5.20;2.35;;;;;;;19.60;100.00;98191.88;15258773;19;20422;-54
2023/06/23 03:50:12;;;;;;;5.35;2.33;;;;;;;19.85;100.00;98191.00;15276863;19;20029;-56
2023/06/23 03:55:41;;;;;;;5.97;2.00;;;;;;;19.87;100.00;98161.56;15280365;19;20021;-53
2023/06/23 04:01:11;;;;;;;3.72;1.80;;;;;;;19.85;100.00;98120.78;15280666;19;20031;-50
2023/06/23 04:06:39;;;;;;;3.67;1.55;;;;;;;19.73;100.00;98083.47;15280450;19;20016;-49
2023/06/23 04:12:08;;;;;;;3.15;1.50;;;;;;;19.69;100.00;98085.84;15275251;19;20497;-51
2023/06/23 04:17:37;;;;;;;2.80;1.23;;;;;;;19.62;100.00;98085.91;15274723;19;20636;-51
2023/06/23 04:23:05;;;;;;;3.88;1.40;;;;;;;19.59;100.00;98094.56;15283640;19;20029;-50
2023/06/23 04:28:33;;;;;;;3.05;1.10;;;;;;;19.54;100.00;98102.63;15281522;19;20014;-50
2023/06/23 04:34:01;;;;;;;5.18;1.42;;;;;;;19.50;100.00;98115.91;15277186;19;20101;-55
2023/06/23 04:39:31;;;;;;;5.18;1.40;;;;;;;19.40;100.00;98130.09;15281697;19;20544;-52
2023/06/23 04:45:00;;;;;;;4.13;1.17;;;;;;;19.34;100.00;98133.75;15272322;19;20010;-48
2023/06/23 04:50:31;;;;;;;5.40;1.23;;;;;;;19.29;100.00;98162.75;15273432;19;20010;-50
2023/06/23 04:56:02;;;;;;;3.90;1.00;;;;;;;19.23;100.00;98142.63;15269492;19;20033;-53
2023/06/23 05:01:29;;;;;;;2.55;0.70;;;;;;;19.14;100.00;98124.88;15274307;19;20951;-54
2023/06/23 05:06:59;;;;;;;5.88;1.02;;;;;;;19.04;100.00;98150.81;15276094;19;20018;-48
2023/06/23 05:12:34;;;;;;;4.22;0.80;;;;;;;18.89;100.00;98164.75;15268866;19;20506;-46
2023/06/23 05:18:01;;;;;;;3.67;0.88;;;;;;;18.85;100.00;98173.59;15270057;19;20109;-47
2023/06/23 05:23:32;;;;;;;4.05;0.63;;;;;;;18.68;100.00;98140.56;15264156;19;20032;-48
2023/06/23 05:29:01;;;;;;;5.15;0.90;;;;;;;18.61;100.00;98178.81;15273365;19;20031;-46
2023/06/23 05:34:27;;;;;;;2.03;0.63;;;;;;;18.52;100.00;98175.50;15269739;19;21022;-47
2023/06/23 05:39:57;;;;;;;3.28;0.70;;;;;;;18.50;100.00;98131.22;15272325;19;20024;-46
2023/06/23 05:45:23;;;;;;;3.65;0.80;;;;;;;18.40;100.00;98139.06;15267211;19;20034;-46
2023/06/23 05:50:49;;;;;;;1.15;0.73;;;;;;;18.28;100.00;98137.03;15269754;19;20010;-49
2023/06/23 05:56:23;;;;;;;1.45;0.90;;;;;;;18.17;100.00;98140.44;15267868;19;20015;-48
2023/06/23 06:01:51;;;;;;;1.40;0.90;;;;;;;18.05;100.00;98148.44;15268986;19;20028;-48
2023/06/23 06:12:41;;;;;;;1.40;0.93;;;;;;;17.99;100.00;98132.97;15277190;19;20022;-50
2023/06/23 06:18:15;;;;;;;1.02;0.80;;;;;;;18.00;100.00;98134.66;15269041;19;20015;-43
2023/06/23 06:23:42;;;;;;;3.75;1.08;;;;;;;17.99;100.00;98144.69;15267551;19;20023;-44
2023/06/23 06:29:12;;;;;;;1.80;1.10;;;;;;;17.95;100.00;98126.25;15270235;19;20006;-45
2023/06/23 06:34:39;;;;;;;1.60;1.02;;;;;;;17.84;100.00;98112.25;15270252;19;20006;-43
2023/06/23 06:40:06;;;;;;;1.50;1.00;;;;;;;17.91;100.00;98125.84;15273697;19;20032;-44
2023/06/23 06:45:34;;;;;;;1.23;0.90;;;;;;;17.91;100.00;98128.56;15270907;19;20090;-44
2023/06/23 06:51:00;;;;;;;1.20;0.80;;;;;;;17.91;100.00;98103.22;15272295;19;20024;-49
2023/06/23 06:56:26;;;;;;;1.73;0.80;;;;;;;17.92;100.00;98099.44;15262708;19;20367;-44
2023/06/23 07:01:55;;;;;;;0.73;0.73;;;;;;;17.99;100.00;98100.28;15271182;19;20014;-46
2023/06/23 07:07:20;;;;;;;1.25;0.70;;;;;;;18.07;100.00;98104.63;15268348;19;20021;-44
2023/06/23 07:12:44;;;;;;;0.70;0.70;;;;;;;18.25;100.00;98109.34;15264605;19;20009;-46
2023/06/23 07:18:18;;;;;;;2.65;0.80;;;;;;;18.40;100.00;98100.88;15267282;19;20022;-44
2023/06/23 07:23:43;;;;;;;1.70;0.80;;;;;;;18.59;100.00;98102.63;15273719;19;20022;-49
2023/06/23 07:29:07;;;;;;;0.60;0.60;;;;;;;18.73;100.00;98081.53;15276955;19;20045;-43
2023/06/23 07:34:35;;;;;;;3.05;0.70;;;;;;;18.70;100.00;98072.97;15278308;19;20093;-43
2023/06/23 07:39:59;;;;;;;3.55;0.70;;;;;;;18.83;100.00;98075.56;15286169;19;20031;-45
2023/06/23 07:45:24;;;;;;;0.98;0.50;;;;;;;18.84;100.00;98069.03;15281713;19;20024;-47
2023/06/23 07:50:52;;;;;;;0.50;0.50;;;;;;;18.90;100.00;98061.84;15282817;19;20027;-46
2023/06/23 07:56:17;;;;;;;1.17;0.45;;;;;;;18.90;100.00;98067.31;15279351;19;20019;-44
2023/06/23 08:01:42;;;;;;;0.45;0.45;;;;;;;18.98;100.00;98056.16;15279798;19;20414;-43
2023/06/23 08:07:10;;;;;;;1.58;0.70;;;;;;;18.91;100.00;98058.06;15279358;19;20089;-46
2023/06/23 08:12:37;;;;;;;0.90;0.40;;;;;;;18.98;100.00;98047.97;15284411;19;20367;-43
2023/06/23 08:18:08;;;;;;;0.93;0.50;;;;;;;18.81;100.00;98052.28;15278121;19;20735;-45
2023/06/23 08:23:36;;;;;;;;;;;;;;;18.70;100.00;98051.13;15279008;19;20463;-44
2023/06/23 08:29:00;;;;;;;0.47;0.40;;;;;;;18.86;100.00;98066.94;15275465;19;19942;-45
2023/06/23 08:34:28;;;;;;;0.73;0.40;;;;;;;18.96;100.00;98077.38;15271627;19;20429;-44
2023/06/23 08:39:55;;;;;;;3.75;0.40;;;;;;;19.04;100.00;98089.91;15279882;19;20780;-47
2023/06/23 08:45:22;;;;;;;0.73;0.40;;;;;;;18.96;100.00;98090.19;15276412;19;20018;-45
2023/06/23 08:50:47;;;;;;;1.08;0.35;;;;;;;18.86;100.00;98088.75;15278871;19;20368;-46
2023/06/23 08:56:16;;;;;;;0.20;0.10;;;;;;;18.71;100.00;98101.91;15274420;19;20029;-47
2023/06/23 09:01:40;;;;;;;0.65;0.20;;;;;;;18.63;100.00;98114.75;15278159;19;20020;-46
2023/06/23 09:07:05;;;;;;;1.60;0.17;;;;;;;18.41;100.00;98136.09;15272788;19;20028;-47
2023/06/23 09:12:32;;;;;;;1.70;0.20;;;;;;;18.14;100.00;98193.50;15274937;19;20033;-44
2023/06/23 09:18:04;;;;;;;1.83;0.10;;;;;;;17.99;100.00;98209.28;15272777;19;20015;-45
2023/06/23 09:23:31;;;;;;;1.23;0.10;;;;;;;17.89;100.00;98219.78;15275749;19;20026;-45
2023/06/23 09:28:58;;;;;;;0.70;0.10;;;;;;;17.91;100.00;98229.41;15270007;19;20032;-44
2023/06/23 09:34:24;;;;;;;1.00;0.20;;;;;;;17.91;100.00;98244.94;15273701;19;20022;-43
2023/06/23 09:39:51;;;;;;;0.40;0.10;;;;;;;17.91;100.00;98247.66;15269803;19;20022;-46
2023/06/23 09:45:21;;;;;;;0.15;0.05;;;;;;;17.84;100.00;98291.28;15269129;19;20026;-44
2023/06/23 09:50:47;;;;;;;1.23;0.20;;;;;;;17.64;100.00;98351.22;15273935;19;20016;-45
2023/06/23 09:56:17;;;;;;;0.88;0.10;;;;;;;17.61;100.00;98389.75;15270948;19;20018;-46
2023/06/23 10:01:45;;;;;;;0.57;0.10;;;;;;;17.48;100.00;98412.38;15270231;19;20054;-47
2023/06/23 10:07:22;;;;;;;0.28;0.10;;;;;;;17.40;100.00;98446.09;15273772;19;20033;-48
2023/06/23 10:12:46;;;;;;;0.98;0.03;;;;;;;17.32;100.00;98481.69;15267088;19;20780;-43
2023/06/23 10:18:22;;;;;;;0.13;0.08;;;;;;;17.21;100.00;98483.09;15268557;19;20014;-45
2023/06/23 10:23:47;;;;;;;0.47;0.13;;;;;;;17.18;100.00;98513.44;15270571;19;20025;-42
2023/06/23 10:29:15;;;;;;;0.00;0.00;;;;;;;17.08;100.00;98530.16;15269715;19;20354;-44
2023/06/23 10:34:45;;;;;;;0.25;0.10;;;;;;;17.12;100.00;98555.91;15268755;19;20007;-42
2023/06/23 10:40:13;;;;;;;1.17;0.15;;;;;;;16.98;100.00;98541.38;15271746;19;20010;-42
2023/06/23 10:45:40;;;;;;;1.15;0.05;;;;;;;16.92;100.00;98561.22;15267456;19;20024;-44
2023/06/23 10:51:08;;;;;;;1.15;0.00;;;;;;;16.87;100.00;98572.72;15267773;19;20017;-45
2023/06/23 10:56:34;;;;;;;1.17;0.10;;;;;;;16.83;100.00;98595.03;15267780;19;20021;-42
2023/06/23 11:02:25;;;;;;;0.30;0.10;;;;;;;16.84;100.00;98607.59;15271283;19;20018;-43
2023/06/23 11:08:06;;;;;;;0.98;0.10;;;;;;;16.85;100.00;98629.19;15268175;19;20481;-43
2023/06/23 11:13:33;;;;;;;1.13;0.10;;;;;;;16.77;100.00;98640.19;15264564;19;20032;-43
2023/06/23 11:19:06;;;;;;;2.17;0.10;;;;;;;16.82;100.00;98656.78;15266209;19;20018;-42
2023/06/23 11:24:33;;;;;;;2.08;0.20;;;;;;;16.91;100.00;98673.84;15262874;19;20014;-43
2023/06/23 11:30:25;;;;;;;1.75;0.30;;;;;;;16.97;100.00;98692.13;15268915;19;20382;-43
2023/06/23 11:35:50;;;;;;;0.50;0.50;;;;;;;16.97;100.00;98708.44;15263231;19;20090;-43
2023/06/23 11:41:18;;;;;;;0.63;0.40;;;;;;;17.00;100.00;98715.38;15266709;19;20027;-45
2023/06/23 11:46:43;;;;;;;1.15;0.10;;;;;;;16.42;100.00;98710.78;15259797;19;20024;-46
2023/06/23 11:52:10;;;;;;;0.10;0.10;;;;;;;16.00;100.00;98659.72;15263027;19;20011;-43
2023/06/23 11:57:37;;;;;;;0.57;0.10;;;;;;;15.52;100.00;98634.84;15264226;19;20021;-46
2023/06/23 12:03:03;;;;;;;0.10;0.10;;;;;;;15.40;100.00;98670.59;15263501;19;20506;-44
2023/06/23 12:08:29;;;;;;;1.00;0.10;;;;;;;15.15;100.00;98690.88;15264201;19;20019;-48
2023/06/23 12:14:00;;;;;;;0.10;0.10;;;;;;;14.95;100.00;98737.53;15279229;19;20022;-48
2023/06/23 12:19:32;;;;;;;0.20;0.10;;;;;;;14.68;100.00;98772.28;15258177;19;20020;-52
2023/06/23 12:24:57;;;;;;;0.30;0.10;;;;;;;14.67;100.00;98802.28;15281605;19;20019;-55
2023/06/23 12:30:30;;;;;;;0.75;0.10;;;;;;;14.58;100.00;98839.44;15283048;19;20014;-55
2023/06/23 12:36:03;;;;;;;0.20;0.20;;;;;;;14.56;100.00;98849.59;15278573;19;20030;-54
2023/06/23 12:41:30;;;;;;;1.88;0.20;;;;;;;14.43;100.00;98859.16;15280756;19;20046;-48
2023/06/23 12:46:59;;;;;;;0.20;0.20;;;;;;;14.33;100.00;98881.06;15277648;19;20030;-49
2023/06/23 12:52:23;;;;;;;0.30;0.20;;;;;;;14.26;100.00;98884.63;15275250;19;20358;-51
2023/06/23 12:57:49;;;;;;;0.30;0.20;;;;;;;14.30;100.00;98897.66;15277730;19;20098;-51
2023/06/23 13:03:16;;;;;;;0.85;0.30;;;;;;;14.24;100.00;98909.19;15275672;19;20020;-52
2023/06/23 13:08:41;;;;;;;0.20;0.20;;;;;;;14.12;100.00;98938.50;15276110;19;20025;-53
2023/06/23 13:14:05;;;;;;;0.13;0.10;;;;;;;14.04;100.00;98943.94;15277495;19;20037;-50
2023/06/23 13:19:33;;;;;;;0.57;0.25;;;;;;;14.04;100.00;98949.38;15274457;19;20002;-53
2023/06/23 13:24:58;;;;;;;0.52;0.25;;;;;;;14.01;100.00;98971.38;15273548;19;20021;-50
2023/06/23 13:30:24;;;;;;;0.25;0.20;;;;;;;13.97;100.00;98989.84;15274274;19;20102;-49
2023/06/23 13:35:51;;;;;;;1.38;0.20;;;;;;;13.98;100.00;98996.09;15266912;19;20019;-52
2023/06/23 13:41:16;;;;;;;0.98;0.30;;;;;;;13.99;100.00;98998.63;15218155;19;20014;-53
2023/06/23 13:46:41;;;;;;;0.20;0.20;;;;;;;13.99;100.00;99014.03;15272252;19;20676;-52
2023/06/23 13:52:09;;;;;;;0.93;0.13;;;;;;;13.95;100.00;99029.78;15270624;19;20019;-52
2023/06/23 13:57:33;;;;;;;0.30;0.28;;;;;;;13.98;100.00;99036.72;15268986;19;20014;-52
2023/06/23 14:03:03;;;;;;;0.20;0.20;;;;;;;13.96;100.00;99069.41;15272653;19;20018;-54
2023/06/23 14:08:31;;;;;;;0.20;0.13;;;;;;;13.96;100.00;99057.72;15271749;19;20487;-53
2023/06/23 14:13:56;;;;;;;0.25;0.20;;;;;;;13.95;100.00;99061.44;15273131;19;20017;-53
2023/06/23 14:19:20;;;;;;;0.50;0.13;;;;;;;13.93;100.00;99060.78;15271214;19;20018;-49
2023/06/23 14:24:41;;;;;;;0.43;0.20;;;;;;;13.90;100.00;99069.22;15272841;19;20350;-48
2023/06/23 14:30:09;;;;;;;0.43;0.32;;;;;;;13.93;100.00;99071.59;15268188;19;20034;-49
2023/06/23 14:35:33;;;;;;;0.70;0.40;;;;;;;13.92;100.00;99078.03;15269486;19;20022;-51
2023/06/23 14:41:01;;;;;;;0.80;0.40;;;;;;;13.95;100.00;99099.34;15270848;19;20098;-51
2023/06/23 14:46:25;;;;;;;0.75;0.40;;;;;;;13.95;100.00;99105.63;15269852;19;20243;-53
2023/06/23 14:51:50;;;;;;;1.05;0.43;;;;;;;13.98;100.00;99124.28;15271458;19;20016;-49
2023/06/23 14:57:17;;;;;;;1.42;0.45;;;;;;;14.05;100.00;99137.13;15269482;19;20442;-56
2023/06/23 15:02:43;;;;;;;1.63;0.60;;;;;;;14.06;100.00;99150.50;15267515;19;20066;-56
2023/06/23 15:08:08;;;;;;;1.67;1.08;;;;;;;14.11;100.00;99141.91;15268381;19;20477;-53
2023/06/23 15:13:35;;;;;;;1.15;1.02;;;;;;;14.16;100.00;99148.53;15271552;19;20482;-54
2023/06/23 15:19:07;;;;;;;1.00;0.90;;;;;;;14.18;100.00;99160.03;15269160;19;20077;-54
2023/06/23 15:24:32;;;;;;;1.85;0.80;;;;;;;14.23;100.00;99188.50;15274160;19;20066;-51
2023/06/23 15:29:59;;;;;;;0.88;0.73;;;;;;;14.23;100.00;99192.03;15270999;19;20069;-53
2023/06/23 15:35:24;;;;;;;1.38;1.27;;;;;;;14.23;100.00;99192.03;15270773;19;20045;-55
2023/06/23 15:40:48;;;;;;;2.13;1.90;;;;;;;14.24;100.00;99206.47;15271940;19;20022;-52
2023/06/23 15:46:15;;;;;;;2.22;2.03;;;;;;;14.23;100.00;99199.34;15278529;19;20014;-51
2023/06/23 15:51:40;;;;;;;3.60;2.15;;;;;;;14.21;100.00;99190.53;15286374;19;20025;-54
2023/06/23 15:57:09;;;;;;;3.55;3.03;;;;;;;14.17;100.00;99217.09;15286529;19;20344;-52
2023/06/23 16:02:37;;;;;;;4.82;2.30;;;;;;;14.18;100.00;99189.00;15282758;19;20010;-57
2023/06/23 16:08:02;;;;;;;3.42;2.80;;;;;;;14.13;100.00;99200.34;15282897;19;20010;-55
2023/06/23 16:13:27;;;;;;;3.70;2.10;;;;;;;14.12;100.00;99198.63;15284918;19;20460;-50
2023/06/23 16:18:56;;;;;;;2.42;2.22;;;;;;;14.15;100.00;99222.72;15281729;19;20019;-47
2023/06/23 16:24:20;;;;;;;6.70;3.83;;;;;;;14.15;100.00;99241.69;15279602;19;20022;-50
2023/06/23 16:29:47;;;;;;;4.85;3.60;;;;;;;14.13;100.00;99265.38;15276039;19;20485;-50
2023/06/23 16:35:19;;;;;;;5.43;3.58;;;;;;;14.12;100.00;99270.94;15276742;19;20089;-50
2023/06/23 16:40:47;;;;;;;4.88;3.70;;;;;;;14.11;100.00;99275.53;15285557;19;20013;-51
2023/06/23 16:46:11;;;;;;;4.18;3.78;;;;;;;14.12;100.00;99279.06;15272964;19;20090;-51
2023/06/23 16:51:39;;;;;;;4.03;2.83;;;;;;;14.09;100.00;99288.38;15276192;19;20020;-50
2023/06/23 16:57:06;;;;;;;5.75;4.30;;;;;;;14.11;100.00;99299.91;15276066;19;20014;-50
2023/06/23 17:02:31;;;;;;;4.90;4.20;;;;;;;14.10;100.00;99298.22;15280950;19;20029;-49
2023/06/23 17:08:01;;;;;;;4.85;3.85;;;;;;;14.11;100.00;99299.06;15276988;19;20030;-47
2023/06/23 17:13:29;;;;;;;7.35;6.03;;;;;;;14.12;100.00;99322.44;15280392;19;20085;-56
2023/06/23 17:19:01;;;;;;;7.57;6.00;;;;;;;14.13;100.00;99330.41;15277971;19;20339;-48
2023/06/23 17:24:29;;;;;;;8.63;6.25;;;;;;;14.19;100.00;99353.31;15279237;19;20538;-47
2023/06/23 17:29:54;;;;;;;9.05;6.72;;;;;;;14.20;100.00;99370.41;15278918;19;20313;-48
2023/06/23 17:35:19;;;;;;;12.93;8.48;;;;;;;14.23;100.00;99383.63;15282189;19;20037;-47
2023/06/23 17:40:46;;;;;;;14.57;9.63;;;;;;;14.23;100.00;99379.06;15319710;19;20018;-54
2023/06/23 17:46:11;;;;;;;12.38;9.00;;;;;;;14.25;100.00;99392.47;15319477;19;20014;-50
2023/06/23 17:51:29;;;;;;;14.63;10.38;;;;;;;14.31;100.00;99398.09;15280250;19;20014;-50
2023/06/23 17:56:57;;;;;;;13.40;10.20;;;;;;;14.34;100.00;99418.59;15276872;19;20019;-51
2023/06/23 18:02:22;;;;;;;13.48;10.55;;;;;;;14.43;100.00;99424.91;15278140;19;20078;-48
2023/06/23 18:07:47;;;;;;;15.38;10.90;;;;;;;14.47;100.00;99435.28;15269581;19;20364;-53
2023/06/23 18:13:15;;;;;;;15.07;11.43;;;;;;;14.52;100.00;99442.94;15268100;19;20482;-50
2023/06/23 18:18:46;;;;;;;15.13;11.52;;;;;;;14.60;100.00;99444.84;15266729;19;20021;-51
2023/06/23 18:24:11;;;;;;;18.95;14.63;;;;;;;14.65;100.00;99458.75;15268204;19;20563;-54
2023/06/23 18:29:43;;;;;;;17.80;14.00;;;;;;;14.69;100.00;99471.00;15268112;19;20014;-49
2023/06/23 18:35:09;;;;;;;19.45;14.05;;;;;;;14.74;100.00;99467.81;15264569;19;20033;-49
2023/06/23 18:40:35;;;;;;;20.27;14.73;;;;;;;14.77;100.00;99462.91;15267307;19;21297;-50
2023/06/23 18:46:03;;;;;;;16.67;13.55;;;;;;;14.82;100.00;99475.13;15262256;19;20014;-51
2023/06/23 18:51:27;;;;;;;15.45;12.55;;;;;;;14.84;100.00;99467.69;15270267;19;20018;-52
2023/06/23 18:56:56;;;;;;;21.80;14.75;;;;;;;14.86;100.00;99465.66;15267693;19;20608;-53
2023/06/23 19:02:23;;;;;;;17.35;13.70;;;;;;;14.86;100.00;99480.06;15246737;19;20016;-49
2023/06/23 19:07:51;;;;;;;19.73;14.30;;;;;;;14.86;100.00;99490.09;15268384;19;20010;-49
2023/06/23 19:13:15;;;;;;;16.38;11.18;;;;;;;14.85;100.00;99493.81;15269365;19;20082;-47
2023/06/23 19:18:43;;;;;;;14.40;11.43;;;;;;;14.85;100.00;99493.81;15269226;19;20022;-48
2023/06/23 19:24:07;;;;;;;16.10;11.20;;;;;;;14.86;100.00;99498.22;15282017;19;20026;-51
2023/06/23 19:29:32;;;;;;;15.80;12.15;;;;;;;14.85;100.00;99501.94;15278526;19;20010;-50
2023/06/23 19:34:59;;;;;;;17.77;12.73;;;;;;;14.85;100.00;99510.09;15279579;19;20010;-51
2023/06/23 19:40:24;;;;;;;17.85;13.70;;;;;;;14.85;100.00;99527.19;15273744;19;20010;-48
2023/06/23 19:45:48;;;;;;;18.90;13.13;;;;;;;14.85;100.00;99537.22;15277573;19;20023;-50
2023/06/23 19:51:16;;;;;;;19.73;12.85;;;;;;;14.84;100.00;99538.22;15275635;19;20026;-48
2023/06/23 19:56:40;;;;;;;18.55;12.75;;;;;;;14.85;100.00;99561.63;15274904;19;20006;-49
2023/06/23 20:02:09;;;;;;;16.52;12.82;;;;;;;14.85;100.00;99556.22;15277797;19;20473;-51
2023/06/23 20:07:37;;;;;;;18.70;13.05;;;;;;;14.85;100.00;99554.34;15276138;19;20035;-50
2023/06/23 20:13:03;;;;;;;19.55;13.93;;;;;;;14.87;100.00;99563.16;15279623;19;20081;-48
2023/06/23 20:18:27;;;;;;;19.23;13.10;;;;;;;14.89;100.00;99560.28;15273931;19;20022;-48
2023/06/23 20:23:55;;;;;;;19.98;14.25;;;;;;;14.90;100.00;99552.00;15273436;19;20015;-49
2023/06/23 20:29:24;;;;;;;19.42;13.88;;;;;;;14.92;100.00;99543.69;15271598;19;20014;-50
2023/06/23 20:34:49;;;;;;;17.02;12.77;;;;;;;14.93;100.00;99535.38;15275449;19;20027;-49
2023/06/23 20:40:18;;;;;;;16.75;12.13;;;;;;;14.93;100.00;99538.09;15276016;19;20021;-47
2023/06/23 20:45:43;;;;;;;16.98;12.60;;;;;;;14.92;100.00;99544.56;15276327;19;20014;-48
2023/06/23 20:51:07;;;;;;;19.30;12.40;;;;;;;14.93;100.00;99537.25;15275351;19;20014;-48
2023/06/23 20:56:35;;;;;;;15.80;12.45;;;;;;;14.93;100.00;99543.50;15269169;19;20033;-49
2023/06/23 21:01:59;;;;;;;21.05;13.90;;;;;;;14.94;100.00;99544.38;15276632;19;20010;-49
2023/06/23 21:07:24;;;;;;;21.85;14.07;;;;;;;14.93;100.00;99553.53;15270411;19;20022;-52
2023/06/23 21:12:51;;;;;;;21.33;14.20;;;;;;;14.91;100.00;99550.13;15276322;19;20085;-50
2023/06/23 21:18:16;;;;;;;22.35;14.45;;;;;;;14.95;100.00;99551.50;15273316;19;20074;-50
2023/06/23 21:23:40;;;;;;;20.73;14.60;;;;;;;14.94;100.00;99555.25;15274978;19;20632;-50
2023/06/23 21:29:08;;;;;;;23.42;15.00;;;;;;;14.91;100.00;99542.00;15269038;19;20025;-47
2023/06/23 21:34:33;;;;;;;21.88;14.10;;;;;;;14.88;100.00;99536.88;15272954;19;20031;-48
2023/06/23 21:39:58;;;;;;;22.80;14.15;;;;;;;14.83;100.00;99537.38;15270753;19;20828;-46
2023/06/23 21:45:28;;;;;;;20.63;13.05;;;;;;;14.82;100.00;99545.69;15270825;19;20375;-47
2023/06/23 21:50:54;;;;;;;17.70;12.23;;;;;;;14.81;100.00;99552.09;15273029;19;20022;-51
2023/06/23 21:56:18;;;;;;;17.13;11.23;;;;;;;14.77;100.00;99552.41;15268751;19;20506;-47
2023/06/23 22:01:47;;;;;;;17.48;11.02;;;;;;;14.76;100.00;99545.28;15270584;19;20018;-46
2023/06/23 22:07:14;;;;;;;16.33;11.43;;;;;;;14.74;100.00;99544.63;15268389;19;20042;-46
2023/06/23 22:12:40;;;;;;;19.92;12.45;;;;;;;14.69;100.00;99549.66;15267221;19;20007;-50
2023/06/23 22:18:14;;;;;;;21.63;13.75;;;;;;;14.64;100.00;99543.88;15266081;19;20032;-49
2023/06/23 22:24:00;;;;;;;22.38;14.80;;;;;;;14.62;100.00;99529.59;15269117;19;20624;-52
2023/06/23 22:29:24;;;;;;;23.08;15.63;;;;;;;14.60;100.00;99537.03;15266328;19;20021;-48
2023/06/23 22:34:52;;;;;;;21.98;14.85;;;;;;;14.56;100.00;99535.66;15270346;19;20020;-47
2023/06/23 22:40:19;;;;;;;22.08;14.82;;;;;;;14.53;100.00;99547.69;15269155;19;20015;-48
2023/06/23 22:45:44;;;;;;;22.38;14.77;;;;;;;14.51;100.00;99560.53;15268822;19;20007;-47
2023/06/23 22:51:11;;;;;;;19.10;13.47;;;;;;;14.45;100.00;99562.03;14758615;19;10001601;-52
2023/06/23 22:56:36;;;;;;;23.17;15.23;;;;;;;14.42;100.00;99556.91;15266762;19;20018;-47
2023/06/23 23:02:01;;;;;;;30.10;17.23;;;;;;;14.38;100.00;99565.53;15263180;19;20089;-48
2023/06/23 23:07:29;;;;;;;26.88;17.33;;;;;;;14.32;100.00;99556.16;15268276;19;20025;-48
2023/06/23 23:12:53;;;;;;;23.52;16.13;;;;;;;14.30;100.00;99555.47;15268634;19;20535;-49
2023/06/23 23:18:18;;;;;;;22.20;14.77;;;;;;;14.25;100.00;99561.34;15266990;19;20031;-46
2023/06/23 23:23:46;;;;;;;23.60;16.02;;;;;;;14.22;100.00;99555.41;15269183;19;20010;-47
2023/06/23 23:29:12;;;;;;;28.30;19.25;;;;;;;14.19;100.00;99556.56;15267176;19;20020;-49
2023/06/23 23:34:38;;;;;;;31.70;19.52;;;;;;;14.17;100.00;99564.00;15265118;19;20018;-50
2023/06/23 23:40:06;;;;;;;31.15;19.83;;;;;;;14.10;100.00;99568.38;15264094;19;20015;-49
2023/06/23 23:45:31;;;;;;;31.73;20.70;;;;;;;14.10;100.00;99573.78;15265883;19;20018;-54
2023/06/23 23:50:56;;;;;;;28.83;18.48;;;;;;;14.07;100.00;99574.91;15266685;19;20539;-46
2023/06/23 23:56:24;;;;;;;33.08;19.90;;;;;;;14.03;100.00;99576.25;15264959;19;20049;-51
